Time;durP1;ratioP1;P1;durP2;ratioP2;P2;SDS_P1;SDS_P2;PMS_P1;PMS_P2;Temp;Humidity;BMP_temperature;BMP_pressure;BME280_temperature;BME280_humidity;BME280_pressure;Samples;Min_cycle;Max_cycle;Signal;HPM_P1;HPM_P2
2021/03/04 00:00:31;;;;;;;40.45;26.50;;;9.30;95.10;;;;;;4864804;29;20278;-78
2021/03/04 00:02:59;;;;;;;39.47;27.25;;;9.30;95.50;;;;;;4865184;29;20227;-79
2021/03/04 00:05:25;;;;;;;38.95;25.85;;;9.30;95.40;;;;;;4834121;29;20206;-78
2021/03/04 00:07:52;;;;;;;38.67;26.80;;;9.30;95.50;;;;;;4868373;29;20220;-78
2021/03/04 00:10:20;;;;;;;37.35;25.40;;;9.30;95.40;;;;;;4847555;29;20284;-78
2021/03/04 00:12:47;;;;;;;49.60;28.90;;;9.40;96.10;;;;;;4847241;29;20525;-77
2021/03/04 00:15:16;;;;;;;43.97;28.90;;;9.40;95.90;;;;;;4880231;29;20201;-78
2021/03/04 00:17:45;;;;;;;49.92;31.08;;;9.40;95.90;;;;;;4854002;29;20233;-78
2021/03/04 00:20:22;;;;;;;42.75;29.08;;;9.40;96.00;;;;;;4847926;29;20198;-78
2021/03/04 00:22:49;;;;;;;44.90;29.75;;;9.40;96.00;;;;;;4859772;29;20229;-78
2021/03/04 00:25:18;;;;;;;49.60;30.63;;;9.40;96.10;;;;;;4863910;29;20242;-80
2021/03/04 00:27:48;;;;;;;48.28;30.00;;;9.40;96.10;;;;;;4874830;29;20230;-78
2021/03/04 00:30:17;;;;;;;40.75;28.15;;;9.40;96.30;;;;;;4870804;29;20210;-77
2021/03/04 00:32:44;;;;;;;43.33;30.58;;;9.50;96.40;;;;;;4883178;29;20264;-80
2021/03/04 00:35:12;;;;;;;46.80;32.10;;;9.50;96.90;;;;;;4871260;29;20198;-77
2021/03/04 00:37:38;;;;;;;39.63;30.45;;;9.50;96.50;;;;;;4883414;29;20238;-76
2021/03/04 00:40:07;;;;;;;49.00;33.22;;;9.50;96.50;;;;;;4864750;29;20192;-77
2021/03/04 00:42:34;;;;;;;43.75;32.17;;;9.50;96.50;;;;;;4869800;29;20224;-78
2021/03/04 00:45:03;;;;;;;45.20;31.53;;;9.60;96.90;;;;;;4873368;29;20192;-77
2021/03/04 00:47:30;;;;;;;48.95;32.08;;;9.60;96.90;;;;;;4864430;29;20491;-76
2021/03/04 00:49:56;;;;;;;49.45;33.03;;;9.60;97.90;;;;;;4877465;29;20208;-79
2021/03/04 00:52:22;;;;;;;46.70;33.03;;;9.60;98.60;;;;;;4871122;29;20270;-81
2021/03/04 00:54:49;;;;;;;46.20;30.55;;;9.60;98.60;;;;;;4882825;29;20597;-79
2021/03/04 00:57:15;;;;;;;49.42;31.27;;;9.60;98.50;;;;;;4873811;29;20258;-78
2021/03/04 00:59:41;;;;;;;46.33;29.80;;;9.60;98.80;;;;;;4881912;29;20262;-80
2021/03/04 01:02:08;;;;;;;43.05;31.38;;;9.50;99.20;;;;;;4878357;29;20233;-77
2021/03/04 01:04:34;;;;;;;49.17;28.17;;;9.50;99.90;;;;;;4864902;29;20217;-78
2021/03/04 01:07:00;;;;;;;39.75;31.23;;;9.40;99.80;;;;;;4879901;29;20244;-80
2021/03/04 01:09:27;;;;;;;43.63;31.23;;;9.40;99.30;;;;;;4877442;29;20197;-79
2021/03/04 01:11:53;;;;;;;37.45;27.88;;;9.40;99.90;;;;;;4852284;29;20224;-80
2021/03/04 01:14:19;;;;;;;43.10;30.17;;;9.50;99.90;;;;;;4868283;29;20198;-77
2021/03/04 01:16:46;;;;;;;49.70;33.80;;;9.40;99.90;;;;;;4883312;29;20687;-77
2021/03/04 01:19:12;;;;;;;52.97;33.90;;;9.40;99.90;;;;;;4884783;29;20608;-79
2021/03/04 01:21:39;;;;;;;47.90;31.55;;;9.40;99.90;;;;;;4869888;29;20222;-79
2021/03/04 01:24:06;;;;;;;52.00;30.40;;;9.40;99.90;;;;;;4883528;29;20219;-78
2021/03/04 01:26:33;;;;;;;41.78;29.63;;;9.30;99.90;;;;;;4873934;29;20233;-79
2021/03/04 01:29:00;;;;;;;42.75;30.08;;;9.30;99.90;;;;;;4874406;29;20203;-79
2021/03/04 01:31:27;;;;;;;44.38;29.60;;;9.20;99.90;;;;;;4856011;29;20310;-79
2021/03/04 01:33:54;;;;;;;42.85;30.50;;;9.10;99.90;;;;;;4844910;29;20571;-78
2021/03/04 01:36:20;;;;;;;41.25;29.00;;;9.10;99.90;;;;;;4847235;29;20263;-78
2021/03/04 01:38:47;;;;;;;43.53;29.60;;;9.10;99.90;;;;;;4855049;29;20192;-78
2021/03/04 01:41:13;;;;;;;46.55;30.75;;;9.10;99.90;;;;;;4879217;29;20239;-78
2021/03/04 01:43:39;;;;;;;36.40;28.33;;;9.10;99.90;;;;;;4877532;29;20236;-79
2021/03/04 01:46:06;;;;;;;48.33;29.63;;;9.20;99.90;;;;;;4864865;29;20280;-80
2021/03/04 01:48:47;;;;;;;50.45;31.10;;;9.20;99.90;;;;;;4856352;29;20267;-78
2021/03/04 01:51:14;;;;;;;50.10;29.50;;;9.10;99.90;;;;;;4847705;29;20224;-78
2021/03/04 01:53:40;;;;;;;41.95;31.00;;;9.10;99.90;;;;;;4865585;29;20199;-79
2021/03/04 01:56:07;;;;;;;44.60;33.28;;;9.10;99.90;;;;;;4867686;29;20236;-78
2021/03/04 01:58:34;;;;;;;43.95;32.03;;;9.20;99.90;;;;;;4877587;29;20198;-77
2021/03/04 02:04:42;;;;;;;42.97;29.27;;;9.10;99.90;;;;;;4862310;29;20206;-79
2021/03/04 02:07:26;;;;;;;39.20;28.63;;;9.10;99.90;;;;;;4864198;29;20234;-78
2021/03/04 02:10:01;;;;;;;47.20;31.02;;;9.10;99.90;;;;;;4866590;29;20208;-77
2021/03/04 02:12:37;;;;;;;45.15;31.77;;;9.10;99.90;;;;;;4829216;29;20256;-77
2021/03/04 02:15:08;;;;;;;38.97;27.80;;;9.10;99.90;;;;;;4874499;29;20263;-77
2021/03/04 02:17:38;;;;;;;42.67;31.05;;;9.10;99.90;;;;;;4865450;29;20694;-78
2021/03/04 02:20:13;;;;;;;48.88;30.15;;;9.10;99.90;;;;;;4867475;29;20280;-78
2021/03/04 02:22:45;;;;;;;36.08;26.00;;;9.10;99.90;;;;;;4866867;29;20267;-78
2021/03/04 02:25:44;;;;;;;42.58;26.85;;;9.10;99.90;;;;;;4849250;29;20208;-78
2021/03/04 02:28:12;;;;;;;36.10;25.08;;;9.10;99.90;;;;;;4872272;29;20227;-78
2021/03/04 02:30:41;;;;;;;38.78;25.75;;;9.20;99.90;;;;;;4873430;29;20188;-78
2021/03/04 02:33:34;;;;;;;41.53;27.23;;;9.10;99.90;;;;;;4886162;29;20202;-79
2021/03/04 02:36:02;;;;;;;38.10;26.70;;;9.20;99.90;;;;;;4882128;29;20227;-76
2021/03/04 02:38:28;;;;;;;44.45;26.40;;;9.20;99.90;;;;;;4866353;29;20200;-75
2021/03/04 02:40:57;;;;;;;40.95;28.08;;;9.10;99.90;;;;;;4866027;29;20227;-77
2021/03/04 02:43:26;;;;;;;37.33;26.75;;;9.10;99.90;;;;;;4873260;29;20210;-78
2021/03/04 02:45:54;;;;;;;42.60;28.15;;;9.00;99.90;;;;;;4893151;29;20599;-77
2021/03/04 02:48:22;;;;;;;37.88;24.88;;;9.00;99.90;;;;;;4871154;29;20194;-76
2021/03/04 02:50:51;;;;;;;35.38;25.02;;;9.00;99.90;;;;;;4872187;29;20230;-78
2021/03/04 02:53:18;;;;;;;32.25;25.60;;;9.00;99.90;;;;;;4871885;29;20203;-78
2021/03/04 02:55:45;;;;;;;34.58;26.85;;;9.00;99.90;;;;;;4882134;29;20340;-79
2021/03/04 02:58:13;;;;;;;36.05;26.48;;;8.80;99.90;;;;;;4878347;29;20207;-77
2021/03/04 03:00:40;;;;;;;40.33;26.75;;;8.70;99.90;;;;;;4868803;29;20234;-78
2021/03/04 03:03:10;;;;;;;35.88;26.02;;;8.70;99.90;;;;;;4884688;29;20301;-77
2021/03/04 03:05:40;;;;;;;39.88;26.45;;;8.70;99.90;;;;;;4882257;29;20190;-79
2021/03/04 03:08:08;;;;;;;39.75;26.02;;;8.70;99.90;;;;;;4880512;29;20758;-78
2021/03/04 03:10:35;;;;;;;37.47;25.63;;;8.70;99.90;;;;;;4852307;29;20212;-78
2021/03/04 03:13:03;;;;;;;36.38;26.02;;;8.60;99.90;;;;;;4843656;29;20185;-76
2021/03/04 03:15:30;;;;;;;38.25;25.55;;;8.60;99.90;;;;;;4836256;29;20207;-77
2021/03/04 03:17:56;;;;;;;36.53;25.63;;;8.60;99.90;;;;;;4847618;29;20303;-77
2021/03/04 03:20:24;;;;;;;31.67;25.60;;;8.60;99.90;;;;;;4850326;29;20196;-79
2021/03/04 03:22:52;;;;;;;32.85;23.60;;;8.60;99.90;;;;;;4864682;29;20526;-78
2021/03/04 03:25:19;;;;;;;38.03;25.67;;;8.50;99.90;;;;;;4849944;29;20196;-78
2021/03/04 03:27:46;;;;;;;34.45;23.30;;;8.60;99.90;;;;;;4877079;29;20231;-76
2021/03/04 03:30:25;;;;;;;33.55;23.42;;;8.60;99.90;;;;;;4847732;29;20188;-80
2021/03/04 03:32:57;;;;;;;45.47;24.92;;;8.50;99.90;;;;;;4888541;29;20230;-76
2021/03/04 03:35:26;;;;;;;41.83;24.67;;;8.50;99.90;;;;;;4870077;29;20242;-77
2021/03/04 03:37:58;;;;;;;35.75;24.00;;;8.60;99.90;;;;;;4866868;29;20223;-80
2021/03/04 03:40:26;;;;;;;38.83;25.10;;;8.60;99.90;;;;;;4868062;29;20199;-77
2021/03/04 03:42:56;;;;;;;35.47;26.10;;;8.50;99.90;;;;;;4889348;29;20230;-79
2021/03/04 03:45:28;;;;;;;36.20;26.05;;;8.50;99.90;;;;;;4874431;29;20196;-78
2021/03/04 03:47:55;;;;;;;38.22;23.83;;;8.50;99.90;;;;;;4877126;29;20582;-77
2021/03/04 03:50:24;;;;;;;33.30;23.85;;;8.50;99.90;;;;;;4866015;29;20191;-79
2021/03/04 03:52:52;;;;;;;39.60;24.05;;;8.40;99.90;;;;;;4880431;29;20237;-78
2021/03/04 03:55:19;;;;;;;36.92;23.60;;;8.40;99.90;;;;;;4866527;29;20192;-75
2021/03/04 03:57:46;;;;;;;35.50;24.30;;;8.50;99.90;;;;;;4880519;29;20329;-78
2021/03/04 04:00:14;;;;;;;33.90;26.15;;;8.50;99.90;;;;;;4866028;29;20622;-79
2021/03/04 04:02:42;;;;;;;36.03;23.70;;;8.50;99.90;;;;;;4876139;29;20223;-77
2021/03/04 04:05:09;;;;;;;40.47;24.40;;;8.50;99.90;;;;;;4866056;29;20255;-77
2021/03/04 04:07:37;;;;;;;30.55;22.20;;;8.60;99.90;;;;;;4887698;29;20322;-77
2021/03/04 04:10:05;;;;;;;37.63;23.10;;;8.60;99.90;;;;;;4864294;29;20325;-77
2021/03/04 04:12:31;;;;;;;29.70;22.98;;;8.60;99.90;;;;;;4879746;29;20246;-80
2021/03/04 04:14:58;;;;;;;33.88;23.20;;;8.70;99.90;;;;;;4880702;29;20203;-79
2021/03/04 04:17:24;;;;;;;29.52;22.35;;;8.70;99.90;;;;;;4866357;29;20246;-78
2021/03/04 04:19:57;;;;;;;32.83;23.33;;;8.70;99.90;;;;;;4862612;29;20252;-78
2021/03/04 04:22:23;;;;;;;40.25;22.85;;;8.70;99.90;;;;;;4898984;29;20230;-78
2021/03/04 04:24:50;;;;;;;31.30;22.85;;;8.60;99.90;;;;;;4876426;29;20267;-77
2021/03/04 04:27:17;;;;;;;33.65;23.23;;;8.60;99.90;;;;;;4893630;29;20230;-78
2021/03/04 04:29:44;;;;;;;34.00;24.23;;;8.60;99.90;;;;;;4879330;29;20254;-77
2021/03/04 04:32:11;;;;;;;41.70;25.98;;;8.50;99.90;;;;;;4884610;29;20222;-76
2021/03/04 04:34:37;;;;;;;34.88;25.88;;;8.60;99.90;;;;;;4862406;29;20204;-81
2021/03/04 04:37:04;;;;;;;35.70;23.00;;;8.50;99.90;;;;;;4863815;29;20238;-79
2021/03/04 04:39:30;;;;;;;32.70;21.92;;;8.50;99.90;;;;;;4884069;29;20191;-79
2021/03/04 04:41:57;;;;;;;41.25;26.00;;;8.50;99.90;;;;;;4878773;29;20307;-79
2021/03/04 04:44:23;;;;;;;34.75;25.27;;;8.60;99.90;;;;;;4897095;29;20221;-78
2021/03/04 04:46:49;;;;;;;35.40;23.60;;;8.60;99.90;;;;;;4881855;29;20234;-77
2021/03/04 04:49:16;;;;;;;33.42;24.17;;;8.60;99.90;;;;;;4873762;29;20194;-78
2021/03/04 04:51:42;;;;;;;34.92;25.05;;;8.50;99.90;;;;;;4877838;29;20271;-78
2021/03/04 04:54:09;;;;;;;43.72;26.65;;;8.60;99.90;;;;;;4880221;29;20195;-78
2021/03/04 04:56:35;;;;;;;47.28;25.58;;;8.60;99.90;;;;;;4875174;29;20262;-77
2021/03/04 04:59:02;;;;;;;34.83;25.58;;;8.60;99.90;;;;;;4877711;29;20191;-75
2021/03/04 05:01:28;;;;;;;31.50;23.42;;;8.60;99.90;;;;;;4864269;29;20231;-79
2021/03/04 05:03:55;;;;;;;36.08;24.48;;;8.70;99.90;;;;;;4863570;29;20314;-80
2021/03/04 05:06:21;;;;;;;29.67;23.00;;;8.70;99.90;;;;;;4874181;29;20235;-80
2021/03/04 05:08:48;;;;;;;34.50;23.33;;;8.60;99.90;;;;;;4878157;29;20194;-77
2021/03/04 05:11:16;;;;;;;35.63;24.73;;;8.50;99.90;;;;;;4861926;29;20223;-77
2021/03/04 05:13:44;;;;;;;30.90;22.23;;;8.50;99.90;;;;;;4869860;29;20202;-76
2021/03/04 05:16:11;;;;;;;33.00;22.73;;;8.50;99.90;;;;;;4899853;29;20301;-77
2021/03/04 05:18:38;;;;;;;31.38;22.60;;;8.60;99.90;;;;;;4877571;29;20232;-80
2021/03/04 05:21:06;;;;;;;33.28;24.92;;;8.60;99.90;;;;;;4884723;29;20756;-78
2021/03/04 05:23:33;;;;;;;29.98;21.65;;;8.50;99.90;;;;;;4880597;29;20208;-76
2021/03/04 05:26:00;;;;;;;40.25;24.80;;;8.50;99.90;;;;;;4864131;29;20710;-79
2021/03/04 05:28:26;;;;;;;44.65;29.42;;;8.60;99.90;;;;;;4856777;29;20211;-77
2021/03/04 05:30:53;;;;;;;44.15;31.77;;;8.70;99.90;;;;;;4874700;29;20222;-78
2021/03/04 05:33:19;;;;;;;48.47;34.17;;;8.80;99.90;;;;;;4881317;29;20191;-79
2021/03/04 05:35:46;;;;;;;50.28;34.33;;;8.80;99.90;;;;;;4865331;29;20232;-80
2021/03/04 05:38:13;;;;;;;49.47;34.58;;;8.90;99.90;;;;;;4859695;29;20268;-77
2021/03/04 05:40:40;;;;;;;46.85;31.63;;;8.90;99.90;;;;;;4888713;29;20219;-81
2021/03/04 05:43:09;;;;;;;43.92;31.25;;;9.00;99.90;;;;;;4878440;29;20642;-80
2021/03/04 05:45:36;;;;;;;47.22;28.70;;;9.00;99.90;;;;;;4869896;29;20274;-78
2021/03/04 05:48:04;;;;;;;34.00;25.17;;;9.00;99.90;;;;;;4874237;29;20768;-79
2021/03/04 05:50:31;;;;;;;32.35;23.08;;;9.00;99.90;;;;;;4878473;29;20195;-81
2021/03/04 05:53:08;;;;;;;32.28;22.05;;;9.00;99.90;;;;;;4879237;29;20203;-81
2021/03/04 05:55:35;;;;;;;28.77;21.05;;;9.10;99.90;;;;;;4855284;29;20558;-78
2021/03/04 05:58:04;;;;;;;27.35;20.17;;;9.10;99.90;;;;;;4847763;29;20701;-79
2021/03/04 06:00:31;;;;;;;27.42;19.25;;;9.10;99.90;;;;;;4875930;29;20209;-78
2021/03/04 06:02:58;;;;;;;27.52;19.70;;;9.10;99.90;;;;;;4880928;29;20218;-77
2021/03/04 06:05:25;;;;;;;29.38;19.30;;;9.10;99.90;;;;;;4859850;29;20193;-77
2021/03/04 06:07:52;;;;;;;27.90;20.52;;;9.10;99.90;;;;;;4843131;29;20227;-79
2021/03/04 06:10:18;;;;;;;26.88;20.77;;;9.10;99.90;;;;;;4869345;29;20558;-80
2021/03/04 06:12:44;;;;;;;24.75;21.00;;;9.10;99.90;;;;;;4863300;29;20239;-80
2021/03/04 06:15:11;;;;;;;26.95;20.90;;;9.10;99.90;;;;;;4883252;29;20219;-78
2021/03/04 06:17:38;;;;;;;25.25;20.58;;;9.10;99.90;;;;;;4892898;29;20592;-78
2021/03/04 06:20:09;;;;;;;24.45;20.63;;;9.10;99.90;;;;;;4852174;29;20671;-77
2021/03/04 06:22:37;;;;;;;26.90;21.60;;;9.10;99.90;;;;;;4846745;29;20372;-79
2021/03/04 06:25:11;;;;;;;26.35;21.75;;;9.10;99.90;;;;;;4876862;29;20231;-78
2021/03/04 06:27:42;;;;;;;27.75;23.00;;;9.10;99.90;;;;;;4878894;29;20338;-76
2021/03/04 06:30:11;;;;;;;28.80;21.95;;;9.10;99.90;;;;;;4868846;29;20194;-79
2021/03/04 06:32:40;;;;;;;31.15;22.35;;;9.10;99.90;;;;;;4862356;29;20219;-78
2021/03/04 06:35:14;;;;;;;28.17;22.58;;;9.10;99.90;;;;;;4847228;29;20710;-79
2021/03/04 06:37:43;;;;;;;33.50;23.30;;;9.20;99.90;;;;;;4879310;29;20226;-82
2021/03/04 06:40:32;;;;;;;25.90;20.52;;;9.10;99.90;;;;;;4876625;29;20809;-80
2021/03/04 06:43:00;;;;;;;25.02;21.00;;;9.00;99.90;;;;;;4861635;29;20242;-79
2021/03/04 06:45:32;;;;;;;26.58;21.38;;;9.00;99.90;;;;;;4862057;29;20190;-81
2021/03/04 06:48:13;;;;;;;29.95;23.30;;;9.00;99.90;;;;;;4863113;29;20283;-79
2021/03/04 06:50:42;;;;;;;40.20;27.50;;;8.90;99.90;;;;;;4850196;29;20200;-80
2021/03/04 06:53:20;;;;;;;37.75;28.83;;;9.10;99.90;;;;;;4861053;29;20226;-80
2021/03/04 06:56:01;;;;;;;33.47;24.52;;;9.20;99.90;;;;;;4868252;29;20265;-78
2021/03/04 06:58:30;;;;;;;37.78;27.42;;;9.10;99.90;;;;;;4867423;29;20206;-78
2021/03/04 07:01:11;;;;;;;39.40;27.75;;;9.10;99.90;;;;;;4869688;29;20302;-80
2021/03/04 07:03:42;;;;;;;32.70;25.80;;;9.10;99.90;;;;;;4863266;29;20215;-79
2021/03/04 07:06:29;;;;;;;29.67;24.77;;;9.10;99.90;;;;;;4886041;29;20234;-77
2021/03/04 07:08:56;;;;;;;28.50;23.33;;;9.10;99.90;;;;;;4882576;29;20202;-78
2021/03/04 07:11:25;;;;;;;34.22;25.50;;;9.10;99.90;;;;;;4869731;29;20309;-80
2021/03/04 07:13:52;;;;;;;31.55;24.20;;;9.10;99.90;;;;;;4864647;29;20226;-79
2021/03/04 07:16:24;;;;;;;30.38;23.40;;;9.10;99.90;;;;;;4875998;29;20246;-78
2021/03/04 07:18:55;;;;;;;32.05;26.05;;;9.10;99.90;;;;;;4898332;29;20221;-79
2021/03/04 07:21:27;;;;;;;26.60;21.50;;;9.00;99.90;;;;;;4879003;29;20226;-80
2021/03/04 07:23:53;;;;;;;26.38;23.45;;;9.00;99.90;;;;;;4866657;29;20271;-79
2021/03/04 07:26:20;;;;;;;30.13;25.15;;;9.00;99.90;;;;;;4882047;29;20318;-80
2021/03/04 07:28:51;;;;;;;26.63;21.70;;;8.90;99.90;;;;;;4878741;29;20192;-78
2021/03/04 07:31:18;;;;;;;32.03;24.67;;;9.00;99.90;;;;;;4881987;29;20303;-79
2021/03/04 07:33:51;;;;;;;29.65;22.95;;;8.90;99.90;;;;;;4891458;29;20207;-79
2021/03/04 07:36:22;;;;;;;32.65;23.42;;;9.00;99.90;;;;;;4860609;29;20247;-81
2021/03/04 07:39:03;;;;;;;29.10;23.23;;;8.90;99.90;;;;;;4856897;29;20665;-79
2021/03/04 07:41:44;;;;;;;30.10;25.00;;;9.00;99.90;;;;;;4869154;29;20307;-78
2021/03/04 07:44:26;;;;;;;29.15;23.77;;;9.10;99.90;;;;;;4876326;29;20218;-80
2021/03/04 07:46:58;;;;;;;28.25;21.90;;;9.10;99.90;;;;;;4883147;29;20263;-78
2021/03/04 07:49:36;;;;;;;31.05;25.88;;;9.00;99.90;;;;;;4861849;29;20252;-80
2021/03/04 07:52:07;;;;;;;36.30;27.45;;;9.10;99.90;;;;;;4889853;23;20211;-76
2021/03/04 07:54:35;;;;;;;32.65;27.65;;;9.20;99.90;;;;;;4935307;29;20253;-76
2021/03/04 07:57:08;;;;;;;32.28;25.83;;;9.30;99.90;;;;;;4902952;29;20229;-76
2021/03/04 07:59:49;;;;;;;34.55;28.02;;;9.30;99.90;;;;;;4916345;29;20268;-77
2021/03/04 08:02:33;;;;;;;32.10;26.45;;;9.40;99.90;;;;;;4899101;29;20604;-77
2021/03/04 08:05:12;;;;;;;35.42;26.23;;;9.50;99.90;;;;;;4915925;29;20655;-76
2021/03/04 08:07:48;;;;;;;40.80;31.33;;;9.60;99.90;;;;;;4883708;29;20237;-77
2021/03/04 08:10:19;;;;;;;42.55;29.73;;;9.60;99.90;;;;;;4915931;29;20185;-77
2021/03/04 08:12:54;;;;;;;38.55;28.33;;;9.60;99.90;;;;;;4915972;29;20595;-76
2021/03/04 08:15:43;;;;;;;36.40;28.60;;;9.70;99.90;;;;;;4899543;29;20272;-77
2021/03/04 08:18:17;;;;;;;35.88;29.20;;;9.60;99.90;;;;;;4954394;29;20296;-77
2021/03/04 08:20:44;;;;;;;37.72;28.90;;;9.60;99.90;;;;;;4936911;28;20191;-76
2021/03/04 08:23:10;;;;;;;38.92;28.10;;;9.60;99.90;;;;;;4937601;29;20207;-78
2021/03/04 08:25:38;;;;;;;34.40;30.55;;;9.50;99.90;;;;;;4954308;28;20204;-78
2021/03/04 08:28:04;;;;;;;40.53;29.08;;;9.60;99.90;;;;;;4938042;29;20566;-77
2021/03/04 08:30:32;;;;;;;43.63;30.25;;;9.60;99.90;;;;;;4954702;28;20188;-77
2021/03/04 08:33:05;;;;;;;48.33;31.23;;;9.60;99.90;;;;;;4938003;29;20184;-77
2021/03/04 08:35:35;;;;;;;37.72;28.30;;;9.50;99.90;;;;;;4954062;28;20635;-77
2021/03/04 08:38:08;;;;;;;34.70;29.63;;;9.50;99.90;;;;;;4954881;29;20593;-77
2021/03/04 08:40:57;;;;;;;40.35;30.75;;;9.50;99.90;;;;;;4953858;28;20189;-77
2021/03/04 08:43:26;;;;;;;35.70;30.52;;;9.70;99.90;;;;;;4955030;29;20193;-77
2021/03/04 08:45:55;;;;;;;37.78;30.40;;;9.70;99.90;;;;;;4937332;28;20777;-77
2021/03/04 08:48:22;;;;;;;34.65;27.88;;;9.70;99.90;;;;;;4957763;29;20207;-77
2021/03/04 08:50:51;;;;;;;39.53;30.40;;;9.60;99.90;;;;;;4924452;28;21049;-77
2021/03/04 08:53:24;;;;;;;34.72;26.85;;;9.60;99.90;;;;;;4938805;29;20240;-77
2021/03/04 08:55:56;;;;;;;34.28;28.05;;;9.60;99.90;;;;;;4928716;28;20215;-78
2021/03/04 08:58:24;;;;;;;35.50;28.92;;;9.60;99.90;;;;;;4941450;29;20188;-77
2021/03/04 09:00:52;;;;;;;38.20;27.43;;;9.60;99.90;;;;;;4957963;28;20565;-79
2021/03/04 09:03:21;;;;;;;32.70;28.17;;;9.70;99.90;;;;;;4957359;29;21078;-77
2021/03/04 09:05:49;;;;;;;36.20;30.15;;;9.80;99.90;;;;;;4957886;28;20230;-77
2021/03/04 09:08:17;;;;;;;31.88;27.15;;;9.80;99.90;;;;;;4958128;29;20668;-76
2021/03/04 09:10:50;;;;;;;32.53;26.20;;;9.90;99.90;;;;;;4956885;28;20184;-78
2021/03/04 09:13:22;;;;;;;31.70;27.10;;;10.00;99.90;;;;;;4958585;29;20540;-76
2021/03/04 09:15:52;;;;;;;31.90;27.10;;;10.10;99.90;;;;;;4958542;28;20467;-76
2021/03/04 09:18:20;;;;;;;30.80;24.33;;;10.20;99.90;;;;;;4957561;29;20480;-76
2021/03/04 09:20:48;;;;;;;30.97;25.50;;;10.20;99.90;;;;;;4939110;28;20881;-77
2021/03/04 09:23:16;;;;;;;27.43;23.20;;;10.20;99.90;;;;;;4939131;29;20472;-76
2021/03/04 09:25:43;;;;;;;26.37;23.20;;;10.30;99.90;;;;;;4950922;28;20443;-76
2021/03/04 09:28:17;;;;;;;27.10;21.77;;;10.40;99.90;;;;;;4922016;29;20462;-76
2021/03/04 09:30:44;;;;;;;26.80;21.87;;;10.50;99.90;;;;;;4921698;28;20458;-76
2021/03/04 09:33:22;;;;;;;22.77;19.97;;;10.50;99.90;;;;;;4921658;29;20443;-77
2021/03/04 09:35:52;;;;;;;25.37;17.93;;;10.60;99.90;;;;;;4921084;29;20468;-77
2021/03/04 09:38:18;;;;;;;23.03;17.90;;;10.60;99.90;;;;;;4937279;29;20955;-76
2021/03/04 09:40:47;;;;;;;25.43;19.23;;;10.60;99.90;;;;;;4944031;28;20464;-77
2021/03/04 09:43:16;;;;;;;25.00;16.97;;;10.50;99.90;;;;;;4940267;29;20497;-76
2021/03/04 09:45:48;;;;;;;19.47;15.87;;;10.50;99.90;;;;;;4957310;29;20416;-78
2021/03/04 09:48:15;;;;;;;18.97;15.50;;;10.50;99.90;;;;;;4957619;29;20972;-78
2021/03/04 09:50:52;;;;;;;18.53;14.27;;;10.50;99.90;;;;;;4956427;28;20792;-76
2021/03/04 09:53:19;;;;;;;15.60;12.30;;;10.50;99.90;;;;;;4957089;29;20837;-77
2021/03/04 09:55:46;;;;;;;22.07;15.33;;;10.50;99.90;;;;;;4956017;28;20475;-77
2021/03/04 09:58:14;;;;;;;15.30;12.53;;;10.40;99.90;;;;;;4949393;28;20551;-78
2021/03/04 10:00:45;;;;;;;13.70;9.67;;;10.40;99.90;;;;;;4947762;29;20431;-78
2021/03/04 10:03:38;;;;;;;16.43;10.93;;;10.50;99.90;;;;;;4936554;29;20475;-76
2021/03/04 10:06:08;;;;;;;11.17;9.60;;;10.50;99.90;;;;;;4943780;28;21115;-76
2021/03/04 10:08:41;;;;;;;9.20;8.07;;;10.50;99.90;;;;;;4944219;29;20444;-77
2021/03/04 10:11:19;;;;;;;12.93;10.23;;;10.40;99.90;;;;;;4955577;28;20467;-77
2021/03/04 10:13:45;;;;;;;13.33;9.87;;;10.30;99.90;;;;;;4954133;29;20554;-77
2021/03/04 10:16:13;;;;;;;14.20;10.27;;;10.30;99.90;;;;;;4942473;29;20478;-78
2021/03/04 10:18:47;;;;;;;12.63;10.47;;;10.30;99.90;;;;;;4955840;29;20500;-77
2021/03/04 10:21:18;;;;;;;13.87;10.77;;;10.30;99.90;;;;;;4954921;28;20478;-78
2021/03/04 10:23:48;;;;;;;14.83;11.80;;;10.20;99.90;;;;;;4922610;29;20475;-76
2021/03/04 10:26:15;;;;;;;16.33;12.23;;;10.20;99.90;;;;;;4948625;28;21002;-78
2021/03/04 10:28:41;;;;;;;12.23;10.97;;;10.20;99.90;;;;;;4936762;29;20437;-77
2021/03/04 10:31:08;;;;;;;14.33;10.50;;;10.20;99.90;;;;;;4949432;29;20474;-78
2021/03/04 10:33:35;;;;;;;12.00;9.63;;;10.20;99.90;;;;;;4940017;29;20475;-77
2021/03/04 10:36:02;;;;;;;12.70;9.73;;;10.20;99.90;;;;;;4934822;28;20490;-77
2021/03/04 10:38:28;;;;;;;12.30;11.07;;;10.10;99.90;;;;;;4943800;29;20450;-78
2021/03/04 10:40:55;;;;;;;15.33;12.90;;;10.10;99.90;;;;;;4937017;28;21004;-76
2021/03/04 10:43:22;;;;;;;14.07;12.57;;;10.00;99.90;;;;;;4934732;29;20547;-78
2021/03/04 10:45:48;;;;;;;14.73;12.37;;;10.00;99.90;;;;;;4942456;28;20483;-76
2021/03/04 10:48:16;;;;;;;15.07;13.57;;;10.00;99.90;;;;;;4950089;29;20437;-78
2021/03/04 10:50:43;;;;;;;15.03;13.53;;;10.00;99.90;;;;;;4937859;28;20768;-77
2021/03/04 10:53:10;;;;;;;16.87;13.97;;;10.10;99.90;;;;;;4951064;29;20696;-77
2021/03/04 10:55:40;;;;;;;16.60;14.90;;;10.10;99.90;;;;;;4936894;28;20458;-76
2021/03/04 10:58:06;;;;;;;17.13;15.30;;;10.10;99.90;;;;;;4951491;29;20802;-78
2021/03/04 11:00:33;;;;;;;16.17;14.57;;;10.10;99.90;;;;;;4937532;29;20444;-76
2021/03/04 11:02:59;;;;;;;21.93;16.10;;;10.10;99.90;;;;;;4947048;29;20454;-76
2021/03/04 11:05:26;;;;;;;23.70;18.30;;;10.20;99.90;;;;;;4933257;29;20935;-76
2021/03/04 11:07:52;;;;;;;22.10;19.03;;;10.20;99.90;;;;;;4951058;29;20449;-76
2021/03/04 11:10:19;;;;;;;23.37;19.60;;;10.20;99.90;;;;;;4936464;29;20447;-77
2021/03/04 11:12:48;;;;;;;25.33;22.00;;;10.20;99.90;;;;;;4949982;29;20479;-77
2021/03/04 11:15:15;;;;;;;24.00;21.40;;;10.20;99.90;;;;;;4934482;29;20949;-76
2021/03/04 11:17:43;;;;;;;23.30;19.77;;;10.20;99.90;;;;;;4936631;28;20495;-77
2021/03/04 11:20:10;;;;;;;24.00;21.40;;;10.20;99.90;;;;;;4931673;29;20547;-77
2021/03/04 11:22:36;;;;;;;27.20;21.50;;;10.20;99.90;;;;;;4936616;28;20472;-78
2021/03/04 11:25:03;;;;;;;21.50;19.17;;;10.20;99.90;;;;;;4937041;29;20996;-75
2021/03/04 11:27:30;;;;;;;26.23;20.60;;;10.20;99.90;;;;;;4953174;29;21055;-77
2021/03/04 11:29:56;;;;;;;25.30;19.53;;;10.10;99.90;;;;;;4949043;29;20435;-76
2021/03/04 11:32:26;;;;;;;23.77;20.80;;;10.00;99.90;;;;;;4931296;29;20982;-76
2021/03/04 11:34:54;;;;;;;24.17;20.60;;;10.00;99.90;;;;;;4934207;29;20962;-77
2021/03/04 11:37:21;;;;;;;23.33;20.83;;;10.00;99.90;;;;;;4933607;29;20554;-75
2021/03/04 11:39:48;;;;;;;24.87;20.77;;;9.90;99.90;;;;;;4935786;29;20495;-76
2021/03/04 11:42:14;;;;;;;25.50;22.10;;;9.90;99.90;;;;;;4946599;28;20472;-77
2021/03/04 11:44:41;;;;;;;24.63;21.43;;;9.80;99.90;;;;;;4952197;29;20901;-76
2021/03/04 11:47:07;;;;;;;29.65;22.77;;;9.70;99.90;;;;;;4940674;29;20467;-77
2021/03/04 11:49:33;;;;;;;26.90;23.10;;;9.60;99.90;;;;;;4938796;29;20664;-77
2021/03/04 11:52:00;;;;;;;31.08;24.27;;;9.50;99.90;;;;;;4942272;29;20470;-76
2021/03/04 11:54:27;;;;;;;29.03;24.30;;;9.50;99.90;;;;;;4936789;29;20198;-76
2021/03/04 11:56:53;;;;;;;30.17;24.92;;;9.40;99.90;;;;;;4941159;29;20493;-77
2021/03/04 11:59:20;;;;;;;30.88;23.45;;;9.30;99.90;;;;;;4935242;29;20197;-77
2021/03/04 12:01:47;;;;;;;31.75;23.45;;;9.30;99.90;;;;;;4935870;29;20238;-76
2021/03/04 12:04:13;;;;;;;29.15;21.75;;;9.20;99.90;;;;;;4933547;29;20560;-76
2021/03/04 12:06:40;;;;;;;26.08;20.77;;;9.00;99.90;;;;;;4939357;28;20713;-77
2021/03/04 12:09:06;;;;;;;24.70;18.67;;;8.90;99.90;;;;;;4934909;29;20659;-76
2021/03/04 12:11:45;;;;;;;26.40;19.58;;;8.80;99.90;;;;;;4933787;28;20350;-76
2021/03/04 12:14:12;;;;;;;24.05;18.00;;;8.70;99.90;;;;;;4936645;29;20284;-76
2021/03/04 12:16:42;;;;;;;26.52;18.17;;;8.70;99.90;;;;;;4933561;29;20228;-78
2021/03/04 12:19:08;;;;;;;22.55;16.58;;;8.60;99.90;;;;;;4934543;29;20189;-76
2021/03/04 12:21:35;;;;;;;20.90;16.65;;;8.50;99.90;;;;;;4950325;28;20216;-77
2021/03/04 12:24:01;;;;;;;23.63;17.70;;;8.50;99.90;;;;;;4936256;29;20214;-76
2021/03/04 12:26:42;;;;;;;23.13;19.58;;;8.50;99.90;;;;;;4950112;28;20736;-74
2021/03/04 12:29:10;;;;;;;20.17;16.10;;;8.50;99.90;;;;;;4944509;29;20245;-76
2021/03/04 12:31:39;;;;;;;24.63;17.90;;;8.60;99.90;;;;;;4933203;29;20303;-78
2021/03/04 12:34:06;;;;;;;20.70;17.08;;;8.60;99.90;;;;;;4928728;29;20192;-76
2021/03/04 12:36:34;;;;;;;22.92;17.13;;;8.50;99.90;;;;;;4935419;28;20742;-76
2021/03/04 12:39:18;;;;;;;19.95;15.35;;;8.60;99.90;;;;;;4923266;29;20214;-77
2021/03/04 12:41:45;;;;;;;19.48;14.60;;;8.50;99.90;;;;;;4933853;29;20698;-77
2021/03/04 12:44:12;;;;;;;17.77;13.13;;;8.50;99.90;;;;;;4937451;29;20212;-77
2021/03/04 12:46:39;;;;;;;16.70;13.85;;;8.50;99.90;;;;;;4928736;29;20307;-78
2021/03/04 12:49:06;;;;;;;13.70;12.20;;;8.40;99.90;;;;;;4952469;29;20260;-79